createdAt,value
2023-05-05T00:00:58.613Z,996.03
2023-05-05T00:01:58.744Z,996.02
2023-05-05T00:02:58.926Z,996.03
2023-05-05T00:03:58.890Z,995.98
2023-05-05T00:04:58.927Z,995.99
2023-05-05T00:05:59.012Z,996.02
2023-05-05T00:06:59.089Z,996.03
2023-05-05T00:07:59.184Z,995.95
2023-05-05T00:08:59.215Z,995.96
2023-05-05T00:09:59.300Z,995.98
2023-05-05T00:10:59.368Z,996.00
2023-05-05T00:11:59.469Z,996.01
2023-05-05T00:12:59.574Z,995.99
2023-05-05T00:13:59.627Z,995.94
2023-05-05T00:14:59.699Z,995.94
2023-05-05T00:15:59.759Z,995.91
2023-05-05T00:16:59.884Z,995.89
2023-05-05T00:17:59.987Z,995.90
2023-05-05T00:18:59.967Z,995.87
2023-05-05T00:20:00.075Z,995.87
2023-05-05T00:21:00.147Z,995.85
2023-05-05T00:22:00.222Z,995.89
2023-05-05T00:23:00.368Z,995.90
2023-05-05T00:24:00.397Z,995.88
2023-05-05T00:25:00.466Z,995.91
2023-05-05T00:26:00.561Z,995.90
2023-05-05T00:27:00.592Z,995.88
2023-05-05T00:28:00.713Z,995.90
2023-05-05T00:29:00.772Z,995.92
2023-05-05T00:30:00.866Z,995.87
2023-05-05T00:31:00.955Z,995.87
2023-05-05T00:32:01.017Z,995.89
2023-05-05T00:33:01.158Z,995.86
2023-05-05T00:34:01.175Z,995.86
2023-05-05T00:35:01.264Z,995.86
2023-05-05T00:36:01.355Z,995.87
2023-05-05T00:37:01.411Z,995.85
2023-05-05T00:38:01.508Z,995.90
2023-05-05T00:39:01.530Z,995.89
2023-05-05T00:40:01.653Z,995.91
2023-05-05T00:41:01.702Z,995.94
2023-05-05T00:42:01.780Z,995.96
2023-05-05T00:43:01.868Z,995.97
2023-05-05T00:44:01.931Z,996.00
2023-05-05T00:45:02.002Z,995.95
2023-05-05T00:46:02.240Z,995.95
2023-05-05T00:47:02.154Z,995.99
2023-05-05T00:48:02.280Z,996.00
2023-05-05T00:49:02.297Z,995.99
2023-05-05T00:50:02.401Z,995.97
2023-05-05T00:51:02.461Z,995.97
2023-05-05T00:52:02.543Z,995.95
2023-05-05T00:53:02.632Z,995.96
2023-05-05T00:54:02.665Z,995.98
2023-05-05T00:55:02.751Z,995.95
2023-05-05T00:56:02.827Z,995.99
2023-05-05T00:57:02.923Z,995.95
2023-05-05T00:58:03.055Z,995.95
2023-05-05T00:59:03.096Z,995.93
2023-05-05T01:00:03.204Z,995.90
2023-05-05T01:01:03.241Z,995.89
2023-05-05T01:02:03.383Z,995.88
2023-05-05T01:03:03.686Z,995.89
2023-05-05T01:04:03.593Z,995.83
2023-05-05T01:05:03.572Z,995.85
2023-05-05T01:06:03.642Z,995.84
2023-05-05T01:07:03.714Z,995.85
2023-05-05T01:08:03.834Z,995.86
2023-05-05T01:09:03.892Z,995.85
2023-05-05T01:10:17.959Z,995.81
2023-05-05T01:11:04.071Z,995.84
2023-05-05T01:12:04.168Z,995.82
2023-05-05T01:13:04.320Z,995.89
2023-05-05T01:14:04.338Z,995.92
2023-05-05T01:15:04.447Z,995.95
2023-05-05T01:16:04.541Z,995.95
2023-05-05T01:17:04.587Z,995.92
2023-05-05T01:18:04.755Z,995.88
2023-05-05T01:19:04.726Z,995.90
2023-05-05T01:20:04.973Z,995.87
2023-05-05T01:21:04.918Z,995.89
2023-05-05T01:22:04.954Z,995.86
2023-05-05T01:23:05.131Z,995.88
2023-05-05T01:24:05.159Z,995.89
2023-05-05T01:25:05.225Z,995.89
2023-05-05T01:26:05.335Z,995.85
2023-05-05T01:27:05.410Z,995.86
2023-05-05T01:28:05.548Z,995.85
2023-05-05T01:29:05.585Z,995.87
2023-05-05T01:30:05.761Z,995.86
2023-05-05T01:31:05.751Z,995.86
2023-05-05T01:32:05.840Z,995.88
2023-05-05T01:33:05.927Z,995.87
2023-05-05T01:34:06.015Z,995.82
2023-05-05T01:35:06.064Z,995.80
2023-05-05T01:36:06.163Z,995.79
2023-05-05T01:37:06.219Z,995.81
2023-05-05T01:38:06.343Z,995.82
2023-05-05T01:39:06.363Z,995.82
2023-05-05T01:40:06.699Z,995.81
2023-05-05T01:41:06.552Z,995.83
2023-05-05T01:42:06.598Z,995.81
2023-05-05T01:43:06.700Z,995.84
2023-05-05T01:44:06.753Z,995.77
2023-05-05T01:45:06.876Z,995.76
2023-05-05T01:46:06.977Z,995.76
2023-05-05T01:47:06.998Z,995.69
2023-05-05T01:48:07.084Z,995.70
2023-05-05T01:49:07.154Z,995.73
2023-05-05T01:50:07.435Z,995.65
2023-05-05T01:51:07.303Z,995.68
2023-05-05T01:52:07.420Z,995.69
2023-05-05T01:53:07.490Z,995.65
2023-05-05T01:54:07.553Z,995.69
2023-05-05T01:55:07.660Z,995.74
2023-05-05T01:56:07.745Z,995.71
2023-05-05T01:57:07.826Z,995.73
2023-05-05T01:58:07.956Z,995.69
2023-05-05T01:59:07.990Z,995.64
2023-05-05T02:00:08.208Z,995.64
2023-05-05T02:01:08.127Z,995.63
2023-05-05T02:02:08.250Z,995.64
2023-05-05T02:03:08.443Z,995.68
2023-05-05T02:04:08.359Z,995.70
2023-05-05T02:05:08.422Z,995.74
2023-05-05T02:06:08.521Z,995.69
2023-05-05T02:07:08.585Z,995.66
2023-05-05T02:08:08.715Z,995.66
2023-05-05T02:09:08.774Z,995.63
2023-05-05T02:10:09.079Z,995.66
2023-05-05T02:11:08.909Z,995.68
2023-05-05T02:12:09.015Z,995.68
2023-05-05T02:13:09.246Z,995.67
2023-05-05T02:14:09.179Z,995.73
2023-05-05T02:15:09.238Z,995.68
2023-05-05T02:16:09.321Z,995.66
2023-05-05T02:17:09.387Z,995.67
2023-05-05T02:18:09.515Z,995.68
2023-05-05T02:19:09.595Z,995.64
2023-05-05T02:20:09.797Z,995.62
2023-05-05T02:21:09.676Z,995.61
2023-05-05T02:22:09.784Z,995.62
2023-05-05T02:23:09.906Z,995.60
2023-05-05T02:24:09.938Z,995.60
2023-05-05T02:25:10.011Z,995.65
2023-05-05T02:26:10.114Z,995.64
2023-05-05T02:27:10.159Z,995.66
2023-05-05T02:28:10.291Z,995.67
2023-05-05T02:29:10.361Z,995.67
2023-05-05T02:30:10.637Z,995.70
2023-05-05T02:31:10.508Z,995.64
2023-05-05T02:32:10.552Z,995.64
2023-05-05T02:33:10.661Z,995.59
2023-05-05T02:34:10.722Z,995.60
2023-05-05T02:35:10.779Z,995.60
2023-05-05T02:36:10.865Z,995.66
2023-05-05T02:37:10.948Z,995.65
2023-05-05T02:38:11.064Z,995.61
2023-05-05T02:39:11.132Z,995.62
2023-05-05T02:40:11.269Z,995.65
2023-05-05T02:41:11.279Z,995.67
2023-05-05T02:42:11.369Z,995.66
2023-05-05T02:43:11.512Z,995.60
2023-05-05T02:44:11.523Z,995.65
2023-05-05T02:45:11.626Z,995.64
2023-05-05T02:46:11.751Z,995.63
2023-05-05T02:47:11.796Z,995.66
2023-05-05T02:48:11.900Z,995.71
2023-05-05T02:49:11.929Z,995.69
2023-05-05T02:50:12.014Z,995.74
2023-05-05T02:51:12.104Z,995.76
2023-05-05T02:52:12.203Z,995.84
2023-05-05T02:53:12.315Z,995.99
2023-05-05T02:54:12.341Z,996.12
2023-05-05T02:55:12.438Z,996.00
2023-05-05T02:56:12.532Z,995.91
2023-05-05T02:57:12.604Z,995.89
2023-05-05T02:58:12.713Z,995.88
2023-05-05T02:59:14.525Z,995.89
2023-05-05T03:00:12.870Z,995.96
2023-05-05T03:01:13.035Z,995.94
2023-05-05T03:02:13.021Z,995.89
2023-05-05T03:03:13.167Z,995.89
2023-05-05T03:04:13.153Z,995.94
2023-05-05T03:05:13.255Z,995.96
2023-05-05T03:06:13.333Z,995.92
2023-05-05T03:07:13.424Z,995.92
2023-05-05T03:08:13.545Z,996.02
2023-05-05T03:09:13.620Z,996.05
2023-05-05T03:10:13.661Z,995.99
2023-05-05T03:11:13.764Z,995.95
2023-05-05T03:12:13.825Z,996.03
2023-05-05T03:13:13.995Z,996.04
2023-05-05T03:14:14.006Z,996.04
2023-05-05T03:15:14.080Z,996.06
2023-05-05T03:16:14.218Z,996.06
2023-05-05T03:17:14.201Z,996.05
2023-05-05T03:18:14.308Z,996.06
2023-05-05T03:19:14.351Z,996.05
2023-05-05T03:20:14.409Z,996.10
2023-05-05T03:21:14.498Z,996.12
2023-05-05T03:22:14.548Z,996.07
2023-05-05T03:23:14.717Z,996.09
2023-05-05T03:24:14.716Z,996.07
2023-05-05T03:25:14.799Z,996.08
2023-05-05T03:26:14.858Z,996.01
2023-05-05T03:27:14.924Z,996.00
2023-05-05T03:28:15.054Z,996.02
2023-05-05T03:29:15.100Z,996.02
2023-05-05T03:30:21.232Z,996.01
2023-05-05T03:31:15.274Z,995.99
2023-05-05T03:32:15.366Z,996.07
2023-05-05T03:33:15.478Z,996.09
2023-05-05T03:34:15.508Z,996.05
2023-05-05T03:35:15.629Z,996.10
2023-05-05T03:36:15.692Z,996.10
2023-05-05T03:37:15.768Z,996.08
2023-05-05T03:38:15.866Z,996.12
2023-05-05T03:39:15.919Z,996.08
2023-05-05T03:40:15.999Z,996.09
2023-05-05T03:41:16.118Z,996.06
2023-05-05T03:42:16.172Z,996.04
2023-05-05T03:43:16.272Z,996.04
2023-05-05T03:44:16.299Z,996.09
2023-05-05T03:45:16.384Z,996.09
2023-05-05T03:46:16.536Z,996.12
2023-05-05T03:47:16.529Z,996.16
2023-05-05T03:48:16.645Z,996.19
2023-05-05T03:49:16.705Z,996.11
2023-05-05T03:50:16.757Z,996.15
2023-05-05T03:51:16.847Z,996.12
2023-05-05T03:52:16.913Z,996.12
2023-05-05T03:53:17.032Z,996.14
2023-05-05T03:54:17.083Z,996.14
2023-05-05T03:55:17.163Z,996.17
2023-05-05T03:56:17.242Z,996.14
2023-05-05T03:57:17.318Z,996.16
2023-05-05T03:58:17.433Z,996.11
2023-05-05T03:59:17.510Z,996.14
2023-05-05T04:00:17.576Z,996.15
2023-05-05T04:01:17.691Z,996.13
2023-05-05T04:02:18.842Z,996.08
2023-05-05T04:03:18.021Z,996.12
2023-05-05T04:04:18.033Z,996.08
2023-05-05T04:05:17.942Z,996.14
2023-05-05T04:06:18.082Z,996.15
2023-05-05T04:07:18.121Z,996.15
2023-05-05T04:08:18.222Z,996.13
2023-05-05T04:09:18.278Z,996.17
2023-05-05T04:10:18.330Z,996.20
2023-05-05T04:11:18.409Z,996.18
2023-05-05T04:12:18.507Z,996.13
2023-05-05T04:13:18.679Z,996.19
2023-05-05T04:14:18.677Z,996.13
2023-05-05T04:15:18.719Z,996.14
2023-05-05T04:16:18.852Z,996.21
2023-05-05T04:17:18.915Z,996.23
2023-05-05T04:18:18.994Z,996.18
2023-05-05T04:19:19.069Z,996.24
2023-05-05T04:20:19.141Z,996.25
2023-05-05T04:21:19.221Z,996.27
2023-05-05T04:22:19.298Z,996.22
2023-05-05T04:23:19.451Z,996.27
2023-05-05T04:24:19.456Z,996.25
2023-05-05T04:25:19.536Z,996.26
2023-05-05T04:26:19.610Z,996.26
2023-05-05T04:27:19.709Z,996.27
2023-05-05T04:28:21.620Z,996.22
2023-05-05T04:29:19.845Z,996.26
2023-05-05T04:30:19.908Z,996.26
2023-05-05T04:31:20.100Z,996.30
2023-05-05T04:32:20.106Z,996.26
2023-05-05T04:33:20.216Z,996.31
2023-05-05T04:34:20.247Z,996.32
2023-05-05T04:35:20.309Z,996.29
2023-05-05T04:36:20.404Z,996.24
2023-05-05T04:37:20.495Z,996.26
2023-05-05T04:38:20.608Z,996.29
2023-05-05T04:39:20.609Z,996.30
2023-05-05T04:40:20.687Z,996.28
2023-05-05T04:41:20.767Z,996.33
2023-05-05T04:42:20.849Z,996.33
2023-05-05T04:43:20.999Z,996.29
2023-05-05T04:44:21.027Z,996.35
2023-05-05T04:45:21.102Z,996.33
2023-05-05T04:46:21.211Z,996.37
2023-05-05T04:47:21.270Z,996.39
2023-05-05T04:48:21.393Z,996.40
2023-05-05T04:49:21.453Z,996.38
2023-05-05T04:50:21.561Z,996.32
2023-05-05T04:51:21.619Z,996.28
2023-05-05T04:52:21.715Z,996.31
2023-05-05T04:53:21.832Z,996.30
2023-05-05T04:54:22.073Z,996.26
2023-05-05T04:55:21.946Z,996.36
2023-05-05T04:56:22.017Z,996.35
2023-05-05T04:57:22.117Z,996.34
2023-05-05T04:58:22.221Z,996.38
2023-05-05T04:59:22.361Z,996.38
2023-05-05T05:00:22.352Z,996.37
2023-05-05T05:01:22.504Z,996.36
2023-05-05T05:02:22.622Z,996.38
2023-05-05T05:03:22.737Z,996.36
2023-05-05T05:04:22.717Z,996.38
2023-05-05T05:05:22.778Z,996.40
2023-05-05T05:06:22.837Z,996.34
2023-05-05T05:07:22.934Z,996.33
2023-05-05T05:08:23.021Z,996.38
2023-05-05T05:09:23.030Z,996.44
2023-05-05T05:10:23.121Z,996.46
2023-05-05T05:11:23.195Z,996.44
2023-05-05T05:12:23.272Z,996.48
2023-05-05T05:13:23.412Z,996.48
2023-05-05T05:14:23.443Z,996.47
2023-05-05T05:15:23.519Z,996.48
2023-05-05T05:16:23.654Z,996.49
2023-05-05T05:17:23.689Z,996.49
2023-05-05T05:18:23.769Z,996.51
2023-05-05T05:19:23.846Z,996.51
2023-05-05T05:20:23.920Z,996.56
2023-05-05T05:21:24.013Z,996.53
2023-05-05T05:22:24.082Z,996.60
2023-05-05T05:23:24.210Z,996.59
2023-05-05T05:24:24.181Z,996.53
2023-05-05T05:25:24.255Z,996.54
2023-05-05T05:26:24.308Z,996.53
2023-05-05T05:27:24.428Z,996.51
2023-05-05T05:28:24.521Z,996.52
2023-05-05T05:29:24.612Z,996.45
2023-05-05T05:30:24.663Z,996.48
2023-05-05T05:31:24.742Z,996.42
2023-05-05T05:32:24.799Z,996.45
2023-05-05T05:33:24.917Z,996.43
2023-05-05T05:34:24.983Z,996.46
2023-05-05T05:35:25.056Z,996.44
2023-05-05T05:36:25.158Z,996.48
2023-05-05T05:37:25.228Z,996.55
2023-05-05T05:38:25.350Z,996.56
2023-05-05T05:39:25.415Z,996.56
2023-05-05T05:40:25.514Z,996.59
2023-05-05T05:41:25.592Z,996.62
2023-05-05T05:42:25.645Z,996.53
2023-05-05T05:43:25.770Z,996.55
2023-05-05T05:44:25.819Z,996.55
2023-05-05T05:45:25.912Z,996.54
2023-05-05T05:46:26.016Z,996.56
2023-05-05T05:47:26.203Z,996.54
2023-05-05T05:48:26.198Z,996.50
2023-05-05T05:49:26.255Z,996.52
2023-05-05T05:50:26.319Z,996.57
2023-05-05T05:51:26.394Z,996.57
2023-05-05T05:52:26.475Z,996.53
2023-05-05T05:53:26.591Z,996.61
2023-05-05T05:54:26.637Z,996.58
2023-05-05T05:55:26.689Z,996.59
2023-05-05T05:56:26.741Z,996.62
2023-05-05T05:57:26.809Z,996.63
2023-05-05T05:58:26.913Z,996.64
2023-05-05T05:59:26.956Z,996.64
2023-05-05T06:00:27.024Z,996.68
2023-05-05T06:01:27.094Z,996.68
2023-05-05T06:02:27.264Z,996.62
2023-05-05T06:03:27.457Z,996.68
2023-05-05T06:04:27.429Z,996.72
2023-05-05T06:05:27.434Z,996.74
2023-05-05T06:06:27.541Z,996.77
2023-05-05T06:07:27.595Z,996.81
2023-05-05T06:08:27.721Z,996.81
2023-05-05T06:09:27.785Z,996.82
2023-05-05T06:10:28.612Z,996.80
2023-05-05T06:11:27.916Z,996.79
2023-05-05T06:12:27.998Z,996.75
2023-05-05T06:13:28.087Z,996.80
2023-05-05T06:14:28.138Z,996.83
2023-05-05T06:15:28.228Z,996.81
2023-05-05T06:16:28.312Z,996.80
2023-05-05T06:17:28.387Z,996.87
2023-05-05T06:18:28.516Z,996.83
2023-05-05T06:19:28.528Z,996.85
2023-05-05T06:20:28.647Z,996.73
2023-05-05T06:21:28.740Z,996.71
2023-05-05T06:22:28.714Z,996.77
2023-05-05T06:23:28.906Z,996.78
2023-05-05T06:24:28.946Z,996.81
2023-05-05T06:25:28.998Z,996.73
2023-05-05T06:26:29.072Z,996.72
2023-05-05T06:27:29.148Z,996.74
2023-05-05T06:28:29.271Z,996.74
2023-05-05T06:29:29.340Z,996.68
2023-05-05T06:30:29.440Z,996.67
2023-05-05T06:31:29.515Z,996.69
2023-05-05T06:32:29.553Z,996.71
2023-05-05T06:33:29.631Z,996.77
2023-05-05T06:34:29.682Z,996.77
2023-05-05T06:35:29.764Z,996.77
2023-05-05T06:36:29.879Z,996.78
2023-05-05T06:37:29.929Z,996.74
2023-05-05T06:38:30.068Z,996.74
2023-05-05T06:39:30.121Z,996.73
2023-05-05T06:40:30.306Z,996.74
2023-05-05T06:41:30.278Z,996.72
2023-05-05T06:42:30.351Z,996.72
2023-05-05T06:43:30.479Z,996.74
2023-05-05T06:44:30.526Z,996.71
2023-05-05T06:45:30.572Z,996.77
2023-05-05T06:46:30.652Z,996.78
2023-05-05T06:47:30.806Z,996.79
2023-05-05T06:48:30.841Z,996.78
2023-05-05T06:49:30.906Z,996.75
2023-05-05T06:50:31.007Z,996.78
2023-05-05T06:51:31.081Z,996.79
2023-05-05T06:52:31.153Z,996.78
2023-05-05T06:53:31.268Z,996.75
2023-05-05T06:54:31.323Z,996.72
2023-05-05T06:55:31.387Z,996.72
2023-05-05T06:56:31.415Z,996.73
2023-05-05T06:57:31.540Z,996.76
2023-05-05T06:58:31.661Z,996.71
2023-05-05T06:59:31.713Z,996.74
2023-05-05T07:00:31.812Z,996.78
2023-05-05T07:01:31.862Z,996.78
2023-05-05T07:02:31.989Z,996.77
2023-05-05T07:03:32.090Z,996.78
2023-05-05T07:04:32.097Z,996.79
2023-05-05T07:05:32.167Z,996.77
2023-05-05T07:06:32.238Z,996.83
2023-05-05T07:07:32.355Z,996.84
2023-05-05T07:08:32.438Z,996.82
2023-05-05T07:09:32.462Z,996.84
2023-05-05T07:10:32.562Z,996.90
2023-05-05T07:11:32.617Z,996.89
2023-05-05T07:12:32.768Z,996.96
2023-05-05T07:13:32.861Z,996.90
2023-05-05T07:14:32.899Z,996.91
2023-05-05T07:15:33.011Z,996.91
2023-05-05T07:16:33.088Z,996.88
2023-05-05T07:17:33.191Z,996.86
2023-05-05T07:18:33.275Z,996.89
2023-05-05T07:19:33.631Z,996.91
2023-05-05T07:20:33.435Z,996.86
2023-05-05T07:21:33.561Z,996.88
2023-05-05T07:22:33.564Z,996.88
2023-05-05T07:23:33.762Z,996.93
2023-05-05T07:24:33.742Z,996.90
2023-05-05T07:25:33.813Z,996.89
2023-05-05T07:26:33.885Z,996.83
2023-05-05T07:27:33.978Z,996.88
2023-05-05T07:28:34.108Z,996.89
2023-05-05T07:29:34.177Z,996.85
2023-05-05T07:30:34.238Z,996.85
2023-05-05T07:31:34.428Z,996.84
2023-05-05T07:32:34.432Z,996.86
2023-05-05T07:33:34.512Z,996.82
2023-05-05T07:34:34.755Z,996.89
2023-05-05T07:35:34.608Z,996.87
2023-05-05T07:36:34.681Z,996.94
2023-05-05T07:37:34.767Z,996.93
2023-05-05T07:38:34.860Z,996.90
2023-05-05T07:39:34.896Z,996.92
2023-05-05T07:40:34.968Z,996.92
2023-05-05T07:41:35.057Z,996.96
2023-05-05T07:42:35.160Z,996.90
2023-05-05T07:43:35.293Z,996.91
2023-05-05T07:44:35.304Z,996.90
2023-05-05T07:45:35.393Z,996.92
2023-05-05T07:46:35.520Z,996.91
2023-05-05T07:47:35.606Z,996.94
2023-05-05T07:48:35.657Z,997.00
2023-05-05T07:49:35.690Z,996.97
2023-05-05T07:50:35.754Z,996.92
2023-05-05T07:51:35.865Z,996.96
2023-05-05T07:52:46.619Z,996.95
2023-05-05T07:53:36.319Z,996.89
2023-05-05T07:54:36.063Z,996.95
2023-05-05T07:55:36.149Z,996.91
2023-05-05T07:56:36.258Z,996.91
2023-05-05T07:57:36.301Z,996.90
2023-05-05T07:58:36.409Z,996.86
2023-05-05T07:59:36.466Z,996.87
2023-05-05T08:00:36.531Z,996.87
2023-05-05T08:01:36.638Z,996.89
2023-05-05T08:02:36.756Z,996.88
2023-05-05T08:03:36.905Z,996.90
2023-05-05T08:04:36.928Z,996.87
2023-05-05T08:05:36.967Z,996.87
2023-05-05T08:06:37.047Z,996.98
2023-05-05T08:07:37.125Z,996.92
2023-05-05T08:08:37.243Z,996.98
2023-05-05T08:09:37.291Z,996.90
2023-05-05T08:10:37.379Z,996.94
2023-05-05T08:11:37.456Z,997.00
2023-05-05T08:12:37.601Z,996.96
2023-05-05T08:13:37.707Z,997.01
2023-05-05T08:14:37.701Z,997.01
2023-05-05T08:15:37.792Z,997.01
2023-05-05T08:16:37.939Z,996.96
2023-05-05T08:17:37.981Z,996.93
2023-05-05T08:18:38.066Z,996.95
2023-05-05T08:19:38.109Z,996.96
2023-05-05T08:20:38.177Z,996.92
2023-05-05T08:21:38.250Z,996.94
2023-05-05T08:22:38.340Z,996.97
2023-05-05T08:23:38.516Z,996.99
2023-05-05T08:24:38.530Z,996.90
2023-05-05T08:25:38.610Z,996.94
2023-05-05T08:26:38.688Z,996.95
2023-05-05T08:27:38.759Z,996.90
2023-05-05T08:28:38.880Z,996.88
2023-05-05T08:29:38.952Z,996.85
2023-05-05T08:30:39.037Z,996.81
2023-05-05T08:31:39.185Z,996.81
2023-05-05T08:32:39.212Z,996.81
2023-05-05T08:33:39.319Z,996.80
2023-05-05T08:34:39.340Z,996.84
2023-05-05T08:35:39.418Z,996.83
2023-05-05T08:36:39.505Z,996.76
2023-05-05T08:37:39.598Z,996.77
2023-05-05T08:38:39.703Z,996.74
2023-05-05T08:39:39.746Z,996.74
2023-05-05T08:40:39.839Z,996.81
2023-05-05T08:41:39.934Z,996.80
2023-05-05T08:42:40.008Z,996.83
2023-05-05T08:43:40.156Z,996.80
2023-05-05T08:44:40.163Z,996.81
2023-05-05T08:45:40.254Z,996.80
2023-05-05T08:46:40.383Z,996.84
2023-05-05T08:47:40.467Z,996.82
2023-05-05T08:48:40.508Z,996.78
2023-05-05T08:49:40.551Z,996.81
2023-05-05T08:50:40.633Z,996.84
2023-05-05T08:51:40.704Z,996.80
2023-05-05T08:52:40.819Z,996.83
2023-05-05T08:53:40.917Z,996.84
2023-05-05T08:54:40.931Z,996.84
2023-05-05T08:55:40.985Z,996.80
2023-05-05T08:56:41.066Z,996.77
2023-05-05T08:57:41.234Z,996.84
2023-05-05T08:58:41.283Z,996.84
2023-05-05T08:59:41.338Z,996.80
2023-05-05T09:00:41.454Z,996.80
2023-05-05T09:01:41.501Z,996.76
2023-05-05T09:02:41.611Z,996.76
2023-05-05T09:03:41.671Z,996.80
2023-05-05T09:04:41.741Z,996.69
2023-05-05T09:05:41.821Z,996.70
2023-05-05T09:06:41.900Z,996.72
2023-05-05T09:07:41.947Z,996.70
2023-05-05T09:08:42.062Z,996.76
2023-05-05T09:09:42.110Z,996.72
2023-05-05T09:10:42.219Z,996.73
2023-05-05T09:11:42.274Z,996.73
2023-05-05T09:12:42.466Z,996.69
2023-05-05T09:13:42.460Z,996.70
2023-05-05T09:14:42.507Z,996.71
2023-05-05T09:15:42.599Z,996.70
2023-05-05T09:16:42.740Z,996.68
2023-05-05T09:17:42.827Z,996.73
2023-05-05T09:18:42.873Z,996.68
2023-05-05T09:19:42.914Z,996.67
2023-05-05T09:20:43.038Z,996.69
2023-05-05T09:21:43.084Z,996.68
2023-05-05T09:22:43.148Z,996.66
2023-05-05T09:23:43.288Z,996.60
2023-05-05T09:24:43.301Z,996.60
2023-05-05T09:25:43.389Z,996.57
2023-05-05T09:26:43.476Z,996.62
2023-05-05T09:27:43.537Z,996.60
2023-05-05T09:28:43.687Z,996.54
2023-05-05T09:29:43.744Z,996.62
2023-05-05T09:30:43.871Z,996.67
2023-05-05T09:31:43.920Z,996.63
2023-05-05T09:32:44.026Z,996.67
2023-05-05T09:33:44.090Z,996.56
2023-05-05T09:34:44.149Z,996.56
2023-05-05T09:35:44.215Z,996.61
2023-05-05T09:36:44.308Z,996.56
2023-05-05T09:37:44.387Z,996.57
2023-05-05T09:38:44.516Z,996.60
2023-05-05T09:39:44.560Z,996.60
2023-05-05T09:40:44.676Z,996.57
2023-05-05T09:41:44.701Z,996.54
2023-05-05T09:42:45.032Z,996.61
2023-05-05T09:43:44.898Z,996.55
2023-05-05T09:44:44.952Z,996.49
2023-05-05T09:45:45.022Z,996.53
2023-05-05T09:46:45.136Z,996.48
2023-05-05T09:47:45.186Z,996.46
2023-05-05T09:48:45.306Z,996.44
2023-05-05T09:49:45.335Z,996.44
2023-05-05T09:50:45.576Z,996.51
2023-05-05T09:51:45.508Z,996.47
2023-05-05T09:52:46.697Z,996.46
2023-05-05T09:53:45.727Z,996.40
2023-05-05T09:54:45.721Z,996.42
2023-05-05T09:55:45.808Z,996.47
2023-05-05T09:56:45.904Z,996.50
2023-05-05T09:57:45.971Z,996.45
2023-05-05T09:58:46.179Z,996.39
2023-05-05T09:59:46.102Z,996.40
2023-05-05T10:00:46.182Z,996.38
2023-05-05T10:01:46.294Z,996.36
2023-05-05T10:02:46.379Z,996.37
2023-05-05T10:03:46.452Z,996.38
2023-05-05T10:04:46.551Z,996.38
2023-05-05T10:05:46.572Z,996.32
2023-05-05T10:06:46.659Z,996.29
2023-05-05T10:07:46.778Z,996.36
2023-05-05T10:08:46.874Z,996.38
2023-05-05T10:09:46.928Z,996.36
2023-05-05T10:10:47.030Z,996.33
2023-05-05T10:11:47.078Z,996.33
2023-05-05T10:12:47.205Z,996.28
2023-05-05T10:13:47.274Z,996.34
2023-05-05T10:14:47.318Z,996.35
2023-05-05T10:15:47.418Z,996.33
2023-05-05T10:16:47.694Z,996.35
2023-05-05T10:17:57.886Z,996.44
2023-05-05T10:18:47.736Z,996.37
2023-05-05T10:19:47.772Z,996.41
2023-05-05T10:20:47.848Z,996.41
2023-05-05T10:21:47.914Z,996.38
2023-05-05T10:22:48.014Z,996.38
2023-05-05T10:23:48.193Z,996.39
2023-05-05T10:24:48.208Z,996.38
2023-05-05T10:25:48.265Z,996.38
2023-05-05T10:26:48.385Z,996.28
2023-05-05T10:27:48.448Z,996.41
2023-05-05T10:28:48.598Z,996.39
2023-05-05T10:29:48.592Z,996.34
2023-05-05T10:30:48.680Z,996.33
2023-05-05T10:31:48.814Z,996.26
2023-05-05T10:32:59.293Z,996.27
2023-05-05T10:33:49.044Z,996.30
2023-05-05T10:34:49.022Z,996.26
2023-05-05T10:35:49.108Z,996.33
2023-05-05T10:36:49.184Z,996.26
2023-05-05T10:37:49.232Z,996.28
2023-05-05T10:38:49.357Z,996.27
2023-05-05T10:39:49.415Z,996.23
2023-05-05T10:40:49.482Z,996.27
2023-05-05T10:41:49.558Z,996.25
2023-05-05T10:42:49.647Z,996.21
2023-05-05T10:43:49.761Z,996.22
2023-05-05T10:44:49.808Z,996.18
2023-05-05T10:45:50.031Z,996.13
2023-05-05T10:46:49.983Z,996.19
2023-05-05T10:47:50.113Z,996.20
2023-05-05T10:48:50.276Z,996.20
2023-05-05T10:49:50.252Z,996.24
2023-05-05T10:50:50.358Z,996.21
2023-05-05T10:51:50.410Z,996.17
2023-05-05T10:52:50.486Z,996.18
2023-05-05T10:53:50.634Z,996.11
2023-05-05T10:54:50.665Z,996.08
2023-05-05T10:55:50.734Z,996.05
2023-05-05T10:56:50.848Z,996.06
2023-05-05T10:57:50.895Z,996.04
2023-05-05T10:58:59.581Z,996.08
2023-05-05T10:59:51.071Z,996.10
2023-05-05T11:00:51.221Z,996.07
2023-05-05T11:01:51.203Z,996.04
2023-05-05T11:02:51.330Z,996.03
2023-05-05T11:03:51.430Z,996.03
2023-05-05T11:04:51.475Z,996.02
2023-05-05T11:05:51.564Z,996.02
2023-05-05T11:06:51.645Z,996.02
2023-05-05T11:07:51.752Z,996.01
2023-05-05T11:08:51.833Z,996.01
2023-05-05T11:09:51.888Z,996.00
2023-05-05T11:10:51.984Z,996.00
2023-05-05T11:11:52.084Z,995.91
2023-05-05T11:12:52.417Z,995.89
2023-05-05T11:13:52.274Z,995.90
2023-05-05T11:14:52.350Z,995.84
2023-05-05T11:15:52.431Z,995.85
2023-05-05T11:17:53.646Z,995.81
2023-05-05T11:18:54.763Z,995.80
2023-05-05T11:19:54.805Z,995.77
2023-05-05T11:20:54.892Z,995.76
2023-05-05T11:21:54.969Z,995.77
2023-05-05T11:22:55.050Z,995.74
2023-05-05T11:23:55.213Z,995.71
2023-05-05T11:24:55.239Z,995.59
2023-05-05T11:25:55.343Z,995.64
2023-05-05T11:26:55.441Z,995.64
2023-05-05T11:27:55.503Z,995.63
2023-05-05T11:28:55.624Z,995.65
2023-05-05T11:29:55.673Z,995.67
2023-05-05T11:30:55.932Z,995.62
2023-05-05T11:31:55.813Z,995.64
2023-05-05T11:32:55.888Z,995.62
2023-05-05T11:33:55.967Z,995.59
2023-05-05T11:34:56.003Z,995.60
2023-05-05T11:35:56.107Z,995.59
2023-05-05T11:36:56.183Z,995.60
2023-05-05T11:37:56.261Z,995.56
2023-05-05T11:38:56.342Z,995.57
2023-05-05T11:39:56.401Z,995.62
2023-05-05T11:40:56.491Z,995.58
2023-05-05T11:41:56.563Z,995.69
2023-05-05T11:42:56.635Z,995.66
2023-05-05T11:43:56.745Z,995.63
2023-05-05T11:44:56.804Z,995.62
2023-05-05T11:45:56.883Z,995.62
2023-05-05T11:46:56.942Z,995.63
2023-05-05T11:47:57.039Z,995.62
2023-05-05T11:48:57.095Z,995.59
2023-05-05T11:49:57.170Z,995.64
2023-05-05T11:50:57.264Z,995.54
2023-05-05T11:51:57.349Z,995.63
2023-05-05T11:52:57.424Z,995.55
2023-05-05T11:53:59.052Z,995.54
2023-05-05T11:54:57.580Z,995.56
2023-05-05T11:55:57.622Z,995.57
2023-05-05T11:56:57.731Z,995.54
2023-05-05T11:57:57.784Z,995.56
2023-05-05T11:58:57.935Z,995.56
2023-05-05T11:59:57.970Z,995.55
2023-05-05T12:00:58.131Z,995.49
2023-05-05T12:01:58.152Z,995.51
2023-05-05T12:02:58.274Z,995.52
2023-05-05T12:03:58.637Z,995.52
2023-05-05T12:04:58.584Z,995.46
2023-05-05T12:05:58.476Z,995.53
2023-05-05T12:06:58.550Z,995.48
2023-05-05T12:07:58.680Z,995.53
2023-05-05T12:08:58.765Z,995.48
2023-05-05T12:09:58.813Z,995.50
2023-05-05T12:10:58.914Z,995.55
2023-05-05T12:11:58.977Z,995.50
2023-05-05T12:12:59.126Z,995.52
2023-05-05T12:13:59.164Z,995.48
2023-05-05T12:14:59.207Z,995.44
2023-05-05T12:15:59.308Z,995.47
2023-05-05T12:16:59.385Z,995.52
2023-05-05T12:18:02.127Z,995.53
2023-05-05T12:18:59.528Z,995.50
2023-05-05T12:19:59.561Z,995.52
2023-05-05T12:20:59.679Z,995.56
2023-05-05T12:21:59.712Z,995.51
2023-05-05T12:22:59.829Z,995.57
2023-05-05T12:23:59.922Z,995.53
2023-05-05T12:24:59.972Z,995.50
2023-05-05T12:26:00.041Z,995.51
2023-05-05T12:27:00.146Z,995.45
2023-05-05T12:28:00.167Z,995.51
2023-05-05T12:29:00.267Z,995.46
2023-05-05T12:30:00.318Z,995.45
2023-05-05T12:31:00.426Z,995.45